createdAt,value
2023-10-02T00:00:43.548Z,14.13
2023-10-02T00:03:11.652Z,14.09
2023-10-02T00:05:51.557Z,14.04
2023-10-02T00:08:38.616Z,13.99
2023-10-02T00:11:31.982Z,13.80
2023-10-02T00:14:19.880Z,13.71
2023-10-02T00:17:05.617Z,13.67
2023-10-02T00:19:39.711Z,13.76
2023-10-02T00:22:07.264Z,13.73
2023-10-02T00:24:42.017Z,13.68
2023-10-02T00:27:10.810Z,13.70
2023-10-02T00:29:59.178Z,13.68
2023-10-02T00:32:35.642Z,13.60
2023-10-02T00:35:04.329Z,13.53
2023-10-02T00:37:53.287Z,13.47
2023-10-02T00:40:26.326Z,13.52
2023-10-02T00:43:00.272Z,13.50
2023-10-02T00:45:39.749Z,13.53
2023-10-02T00:48:26.081Z,13.54
2023-10-02T00:51:01.436Z,13.53
2023-10-02T00:53:41.225Z,13.50
2023-10-02T00:56:25.366Z,13.47
2023-10-02T00:59:01.556Z,13.46
2023-10-02T01:01:31.078Z,13.44
2023-10-02T01:04:13.155Z,13.39
2023-10-02T01:07:04.080Z,13.39
2023-10-02T01:09:31.832Z,13.37
2023-10-02T01:11:59.759Z,13.31
2023-10-02T01:14:49.775Z,13.17
2023-10-02T01:17:23.750Z,13.17
2023-10-02T01:19:54.718Z,13.09
2023-10-02T01:22:27.889Z,13.04
2023-10-02T01:25:17.838Z,12.95
2023-10-02T01:27:49.338Z,12.98
2023-10-02T01:30:19.919Z,12.96
2023-10-02T01:33:23.005Z,13.05
2023-10-02T01:35:56.509Z,13.01
2023-10-02T01:38:33.308Z,13.02
2023-10-02T01:41:11.639Z,12.95
2023-10-02T01:43:45.743Z,12.85
2023-10-02T01:46:23.741Z,12.93
2023-10-02T01:48:52.334Z,12.95
2023-10-02T01:51:22.478Z,12.89
2023-10-02T01:53:52.672Z,12.89
2023-10-02T01:56:21.457Z,12.85
2023-10-02T01:58:52.475Z,12.85
2023-10-02T02:01:22.586Z,12.69
2023-10-02T02:03:52.002Z,12.69
2023-10-02T02:06:22.588Z,12.68
2023-10-02T02:08:54.411Z,12.62
2023-10-02T02:11:24.181Z,12.58
2023-10-02T02:13:53.169Z,12.59
2023-10-02T02:16:40.095Z,12.57
2023-10-02T02:19:09.201Z,12.56
2023-10-02T02:21:37.564Z,12.58
2023-10-02T02:24:08.262Z,12.57
2023-10-02T02:26:40.501Z,12.52
2023-10-02T02:29:28.098Z,12.40
2023-10-02T02:31:56.744Z,12.48
2023-10-02T02:34:25.030Z,12.45
2023-10-02T02:36:55.640Z,12.38
2023-10-02T02:39:24.325Z,12.37
2023-10-02T02:42:10.312Z,12.37
2023-10-02T02:44:47.590Z,12.35
2023-10-02T02:47:17.378Z,12.32
2023-10-02T02:49:50.457Z,12.38
2023-10-02T02:52:28.230Z,12.29
2023-10-02T02:55:01.429Z,12.29
2023-10-02T02:57:32.585Z,12.31
2023-10-02T03:00:22.687Z,12.31
2023-10-02T03:02:53.975Z,12.29
2023-10-02T03:05:24.139Z,12.27
2023-10-02T03:07:56.064Z,12.24
2023-10-02T03:10:25.374Z,12.20
2023-10-02T03:12:55.195Z,12.12
2023-10-02T03:15:46.325Z,12.18
2023-10-02T03:18:24.834Z,12.21
2023-10-02T03:20:53.535Z,12.28
2023-10-02T03:23:21.406Z,12.35
2023-10-02T03:25:49.142Z,12.30
2023-10-02T03:28:34.795Z,12.29
2023-10-02T03:31:02.522Z,12.31
2023-10-02T03:33:32.876Z,12.31
2023-10-02T03:36:10.592Z,12.33
2023-10-02T03:38:45.357Z,12.34
2023-10-02T03:41:14.954Z,12.38
2023-10-02T03:43:47.787Z,12.45
2023-10-02T03:46:37.232Z,12.53
2023-10-02T03:49:07.559Z,12.49
2023-10-02T03:51:38.120Z,12.52
2023-10-02T03:54:20.139Z,12.60
2023-10-02T03:56:50.436Z,12.82
2023-10-02T03:59:24.159Z,12.97
2023-10-02T04:01:51.946Z,13.00
2023-10-02T04:04:20.349Z,13.03
2023-10-02T04:06:48.796Z,13.08
2023-10-02T04:09:19.180Z,13.10
2023-10-02T04:11:47.118Z,13.13
2023-10-02T04:14:24.300Z,13.22
2023-10-02T04:17:10.149Z,13.32
2023-10-02T04:19:44.405Z,13.47
2023-10-02T04:22:23.286Z,13.59
2023-10-02T04:25:00.386Z,13.69
2023-10-02T04:27:45.576Z,13.71
2023-10-02T04:30:14.948Z,13.64
2023-10-02T04:32:53.398Z,13.68
2023-10-02T04:35:39.320Z,13.73
2023-10-02T04:38:10.432Z,13.82
2023-10-02T04:40:39.388Z,13.83
2023-10-02T04:43:20.751Z,13.89
2023-10-02T04:46:09.780Z,13.90
2023-10-02T04:48:41.007Z,13.75
2023-10-02T04:51:13.441Z,13.70
2023-10-02T04:53:47.091Z,13.74
2023-10-02T04:56:20.560Z,13.76
2023-10-02T04:58:52.217Z,13.75
2023-10-02T05:01:36.280Z,13.82
2023-10-02T05:04:04.867Z,13.84
2023-10-02T05:06:51.395Z,13.84
2023-10-02T05:09:26.302Z,13.81
2023-10-02T05:11:56.943Z,13.83
2023-10-02T05:14:31.189Z,13.91
2023-10-02T05:17:21.623Z,13.93
2023-10-02T05:20:02.338Z,14.01
2023-10-02T05:22:32.385Z,14.13
2023-10-02T05:25:01.472Z,14.15
2023-10-02T05:27:31.384Z,14.11
2023-10-02T05:30:14.042Z,14.14
2023-10-02T05:32:42.398Z,14.26
2023-10-02T05:35:15.998Z,14.35
2023-10-02T05:37:47.028Z,14.54
2023-10-02T05:40:20.591Z,14.72
2023-10-02T05:43:10.516Z,14.88
2023-10-02T05:45:46.770Z,15.01
2023-10-02T05:48:29.143Z,15.19
2023-10-02T05:50:58.546Z,15.34
2023-10-02T05:53:27.702Z,15.48
2023-10-02T05:55:58.748Z,15.68
2023-10-02T05:58:33.103Z,15.85
2023-10-02T06:01:08.075Z,15.94
2023-10-02T06:03:38.474Z,16.10
2023-10-02T06:06:22.776Z,16.31
2023-10-02T06:09:13.972Z,16.52
2023-10-02T06:12:01.175Z,16.66
2023-10-02T06:14:29.076Z,16.77
2023-10-02T06:16:59.557Z,16.91
2023-10-02T06:19:26.696Z,16.94
2023-10-02T06:22:00.257Z,17.11
2023-10-02T06:24:30.359Z,17.32
2023-10-02T06:27:15.042Z,17.54
2023-10-02T06:29:48.580Z,17.85
2023-10-02T06:32:25.203Z,18.06
2023-10-02T06:34:52.823Z,18.42
2023-10-02T06:37:25.977Z,18.71
2023-10-02T06:40:08.269Z,18.90
2023-10-02T06:42:49.453Z,19.16
2023-10-02T06:45:22.179Z,19.25
2023-10-02T06:47:50.358Z,19.44
2023-10-02T06:50:32.583Z,19.45
2023-10-02T06:53:00.689Z,19.52
2023-10-02T06:55:34.073Z,19.41
2023-10-02T06:58:04.118Z,19.45
2023-10-02T07:00:49.834Z,19.49
2023-10-02T07:03:19.172Z,19.66
2023-10-02T07:05:46.672Z,19.50
2023-10-02T07:08:20.319Z,19.66
2023-10-02T07:10:49.431Z,19.55
2023-10-02T07:13:24.766Z,19.46
2023-10-02T07:15:58.043Z,19.64
2023-10-02T07:18:39.346Z,19.51
2023-10-02T07:21:09.154Z,19.58
2023-10-02T07:23:40.131Z,19.63
2023-10-02T07:26:15.944Z,19.74
2023-10-02T07:28:51.795Z,19.52
2023-10-02T07:31:23.079Z,19.60
2023-10-02T07:33:55.906Z,19.83
2023-10-02T07:36:27.808Z,20.02
2023-10-02T07:38:55.884Z,20.03
2023-10-02T07:41:27.162Z,20.09
2023-10-02T07:44:08.394Z,20.14
2023-10-02T07:46:37.930Z,20.25
2023-10-02T07:49:06.772Z,20.17
2023-10-02T07:51:41.125Z,20.34
2023-10-02T07:54:08.933Z,20.42
2023-10-02T07:56:37.171Z,20.16
2023-10-02T07:59:05.425Z,20.31
2023-10-02T08:01:35.473Z,20.48
2023-10-02T08:04:04.093Z,20.54
2023-10-02T08:06:38.083Z,20.49
2023-10-02T08:09:26.119Z,20.59
2023-10-02T08:11:54.926Z,20.28
2023-10-02T08:14:43.048Z,20.48
2023-10-02T08:17:31.468Z,20.65
2023-10-02T08:20:17.354Z,20.84
2023-10-02T08:22:49.382Z,20.99
2023-10-02T08:25:17.656Z,21.04
2023-10-02T08:27:46.152Z,21.25
2023-10-02T08:30:32.105Z,21.27
2023-10-02T08:33:13.734Z,21.15
2023-10-02T08:35:59.599Z,21.22
2023-10-02T08:38:27.964Z,21.18
2023-10-02T08:41:00.479Z,21.12
2023-10-02T08:43:31.049Z,21.25
2023-10-02T08:45:59.071Z,21.29
2023-10-02T08:48:26.954Z,20.90
2023-10-02T08:50:58.848Z,21.00
2023-10-02T08:53:27.498Z,21.19
2023-10-02T08:56:22.707Z,21.28
2023-10-02T08:59:12.098Z,21.13
2023-10-02T09:01:39.473Z,21.25
2023-10-02T09:04:28.680Z,21.48
2023-10-02T09:07:00.906Z,21.47
2023-10-02T09:09:37.461Z,21.78
2023-10-02T09:12:10.090Z,21.96
2023-10-02T09:14:41.614Z,22.12
2023-10-02T09:17:18.304Z,22.12
2023-10-02T09:19:54.432Z,22.09
2023-10-02T09:22:24.426Z,22.41
2023-10-02T09:25:27.955Z,22.50
2023-10-02T09:28:05.500Z,22.60
2023-10-02T09:30:37.148Z,22.40
2023-10-02T09:33:17.211Z,22.23
2023-10-02T09:36:49.414Z,22.07
2023-10-02T09:38:47.613Z,22.16
2023-10-02T09:41:16.969Z,22.22
2023-10-02T09:43:45.432Z,22.09
2023-10-02T09:46:17.472Z,22.34
2023-10-02T09:48:53.147Z,22.44
2023-10-02T09:51:27.610Z,22.47
2023-10-02T09:54:07.187Z,22.48
2023-10-02T09:57:07.112Z,22.28
2023-10-02T09:59:49.310Z,22.46
2023-10-02T10:02:24.486Z,22.28
2023-10-02T10:05:23.744Z,22.55
2023-10-02T10:07:59.875Z,22.26
2023-10-02T10:10:49.423Z,22.21
2023-10-02T10:13:47.913Z,22.43
2023-10-02T10:16:35.353Z,22.33
2023-10-02T10:19:08.312Z,22.51
2023-10-02T10:21:57.885Z,22.72
2023-10-02T10:25:21.258Z,22.79
2023-10-02T10:28:05.954Z,22.77
2023-10-02T10:30:42.423Z,22.76
2023-10-02T10:33:12.871Z,22.77
2023-10-02T10:35:53.311Z,22.95
2023-10-02T10:38:28.200Z,23.02
2023-10-02T10:41:01.973Z,22.84
2023-10-02T10:43:45.415Z,23.00
2023-10-02T10:46:19.083Z,23.03
2023-10-02T10:48:50.034Z,23.13
2023-10-02T10:51:23.579Z,23.38
2023-10-02T10:54:01.851Z,23.49
2023-10-02T10:56:29.703Z,23.45
2023-10-02T10:59:12.296Z,23.24
2023-10-02T11:02:11.331Z,23.39
2023-10-02T11:04:50.402Z,23.45
2023-10-02T11:07:24.198Z,23.42
2023-10-02T11:10:17.644Z,23.32
2023-10-02T11:13:01.050Z,23.04
2023-10-02T11:15:47.384Z,23.32
2023-10-02T11:18:20.319Z,23.32
2023-10-02T11:20:52.825Z,23.29
2023-10-02T11:23:41.944Z,23.47
2023-10-02T11:26:15.302Z,23.76
2023-10-02T11:28:46.050Z,23.60
2023-10-02T11:31:33.482Z,23.44
2023-10-02T11:34:31.818Z,23.42
2023-10-02T11:36:57.269Z,23.56
2023-10-02T11:39:34.962Z,23.68
2023-10-02T11:42:07.170Z,23.87
2023-10-02T11:44:34.979Z,23.55
2023-10-02T11:47:03.020Z,23.77
2023-10-02T11:49:37.456Z,23.95
2023-10-02T11:52:05.868Z,23.89
2023-10-02T11:54:43.141Z,24.03
2023-10-02T11:57:13.857Z,24.17
2023-10-02T11:59:44.591Z,24.43
2023-10-02T12:02:12.752Z,24.64
2023-10-02T12:04:41.612Z,24.40
2023-10-02T12:07:11.287Z,24.03
2023-10-02T12:09:39.701Z,24.03
2023-10-02T12:12:12.529Z,24.10
2023-10-02T12:14:44.079Z,24.05
2023-10-02T12:17:16.163Z,24.08
2023-10-02T12:19:46.686Z,24.12
2023-10-02T12:22:14.583Z,24.36
2023-10-02T12:24:42.369Z,24.55
2023-10-02T12:27:13.303Z,24.62
2023-10-02T12:29:41.813Z,24.60
2023-10-02T12:32:11.561Z,24.51
2023-10-02T12:34:42.675Z,24.57
2023-10-02T12:37:11.205Z,24.69
2023-10-02T12:39:38.871Z,24.68
2023-10-02T12:42:06.430Z,24.68
2023-10-02T12:44:38.355Z,24.54
2023-10-02T12:47:06.442Z,24.68
2023-10-02T12:49:36.245Z,24.67
2023-10-02T12:52:03.826Z,24.47
2023-10-02T12:54:31.615Z,24.47
2023-10-02T12:57:00.937Z,24.60
2023-10-02T12:59:28.964Z,24.68
2023-10-02T13:01:57.228Z,24.49
2023-10-02T13:04:25.563Z,24.58
2023-10-02T13:06:54.900Z,24.72
2023-10-02T13:09:22.588Z,24.69
2023-10-02T13:11:52.561Z,24.73
2023-10-02T13:14:20.708Z,24.73
2023-10-02T13:16:50.015Z,25.03
2023-10-02T13:19:18.659Z,25.18
2023-10-02T13:21:53.498Z,25.22
2023-10-02T13:24:24.968Z,25.38
2023-10-02T13:26:55.915Z,25.35
2023-10-02T13:29:25.387Z,25.13
2023-10-02T13:31:53.434Z,25.26
2023-10-02T13:34:21.878Z,25.39
2023-10-02T13:36:49.815Z,25.18
2023-10-02T13:39:19.199Z,24.88
2023-10-02T13:41:47.142Z,25.07
2023-10-02T13:44:19.161Z,25.15
2023-10-02T13:46:49.446Z,25.32
2023-10-02T13:49:20.702Z,25.37
2023-10-02T13:51:49.030Z,25.47
2023-10-02T13:54:16.611Z,25.57
2023-10-02T13:56:45.162Z,25.54
2023-10-02T13:59:12.824Z,25.75
2023-10-02T14:01:40.684Z,25.91
2023-10-02T14:04:11.453Z,26.08
2023-10-02T14:06:39.009Z,26.21
2023-10-02T14:09:11.373Z,26.22
2023-10-02T14:11:41.429Z,26.08
2023-10-02T14:14:09.678Z,26.19
2023-10-02T14:16:37.894Z,26.02
2023-10-02T14:19:07.927Z,25.87
2023-10-02T14:21:36.089Z,25.86
2023-10-02T14:24:06.232Z,25.78
2023-10-02T14:26:35.730Z,25.89
2023-10-02T14:29:03.708Z,25.57
2023-10-02T14:31:33.397Z,25.67
2023-10-02T14:34:02.629Z,25.57
2023-10-02T14:36:31.022Z,25.70
2023-10-02T14:38:59.972Z,25.86
2023-10-02T14:41:28.818Z,25.75
2023-10-02T14:43:58.566Z,25.84
2023-10-02T14:46:26.317Z,25.79
2023-10-02T14:48:54.619Z,25.74
2023-10-02T14:51:23.750Z,25.42
2023-10-02T14:53:52.055Z,25.49
2023-10-02T14:56:22.842Z,25.56
2023-10-02T14:58:51.529Z,25.61
2023-10-02T15:01:21.127Z,25.68
2023-10-02T15:03:52.646Z,25.61
2023-10-02T15:06:23.002Z,25.52
2023-10-02T15:08:57.529Z,25.40
2023-10-02T15:11:25.624Z,25.19
2023-10-02T15:13:56.216Z,25.07
2023-10-02T15:16:23.854Z,25.02
2023-10-02T15:18:51.718Z,24.84
2023-10-02T15:21:20.545Z,24.55
2023-10-02T15:23:49.557Z,24.09
2023-10-02T15:26:19.270Z,24.04
2023-10-02T15:28:48.956Z,23.95
2023-10-02T15:31:16.994Z,23.97
2023-10-02T15:33:44.620Z,24.01
2023-10-02T15:36:16.911Z,23.86
2023-10-02T15:38:46.809Z,23.66
2023-10-02T15:41:30.454Z,23.49
2023-10-02T15:43:58.823Z,23.29
2023-10-02T15:46:28.291Z,23.01
2023-10-02T15:48:56.299Z,22.75
2023-10-02T15:51:26.371Z,22.68
2023-10-02T15:53:54.291Z,22.45
2023-10-02T15:56:25.206Z,22.25
2023-10-02T15:58:55.076Z,22.17
2023-10-02T16:01:23.584Z,21.99
2023-10-02T16:03:51.811Z,21.85
2023-10-02T16:06:20.182Z,21.67
2023-10-02T16:08:49.268Z,21.36
2023-10-02T16:11:22.436Z,21.36
2023-10-02T16:13:51.245Z,21.14
2023-10-02T16:16:23.757Z,21.10
2023-10-02T16:18:52.476Z,20.88
2023-10-02T16:21:24.486Z,20.79
2023-10-02T16:23:52.496Z,20.67
2023-10-02T16:26:23.506Z,20.52
2023-10-02T16:28:52.792Z,20.52
2023-10-02T16:31:26.721Z,20.41
2023-10-02T16:33:55.095Z,20.31
2023-10-02T16:36:30.495Z,20.23
2023-10-02T16:41:31.175Z,20.11
2023-10-02T16:43:59.496Z,20.05
2023-10-02T16:46:27.184Z,20.06
2023-10-02T16:48:55.136Z,19.91
2023-10-02T16:51:23.344Z,19.91
2023-10-02T16:53:50.899Z,19.96
2023-10-02T16:56:20.229Z,19.95
2023-10-02T16:58:47.864Z,19.92
2023-10-02T17:01:18.241Z,19.74
2023-10-02T17:03:46.842Z,19.64
2023-10-02T17:06:15.289Z,19.56
2023-10-02T17:08:42.589Z,19.44
2023-10-02T17:11:14.214Z,19.46
2023-10-02T17:13:42.210Z,19.50
2023-10-02T17:16:12.187Z,19.53
2023-10-02T17:18:40.231Z,19.59
2023-10-02T17:21:10.358Z,19.55
2023-10-02T17:23:42.000Z,19.48
2023-10-02T17:26:09.778Z,19.30
2023-10-02T17:28:39.531Z,19.33
2023-10-02T17:31:09.763Z,19.46
2023-10-02T17:33:44.077Z,19.56
2023-10-02T17:36:13.078Z,19.23
2023-10-02T17:38:41.781Z,19.22
2023-10-02T17:41:09.828Z,19.08
2023-10-02T17:43:37.767Z,19.07
2023-10-02T17:46:08.413Z,19.07
2023-10-02T17:48:36.324Z,19.07
2023-10-02T17:51:07.477Z,19.09
2023-10-02T17:53:35.851Z,19.03
2023-10-02T17:56:09.068Z,19.03
2023-10-02T17:58:37.833Z,18.97
2023-10-02T18:01:05.427Z,19.09
2023-10-02T18:03:33.533Z,18.99
2023-10-02T18:06:02.858Z,19.00
2023-10-02T18:08:32.005Z,18.99
2023-10-02T18:10:59.882Z,18.96
2023-10-02T18:13:31.542Z,18.87
2023-10-02T18:15:59.094Z,18.87
2023-10-02T18:18:28.002Z,18.84
2023-10-02T18:20:56.278Z,18.72
2023-10-02T18:23:23.885Z,18.67
2023-10-02T18:25:53.202Z,18.62
2023-10-02T18:28:20.846Z,18.58
2023-10-02T18:30:49.854Z,18.58
2023-10-02T18:33:19.990Z,18.56
2023-10-02T18:35:51.546Z,18.64
2023-10-02T18:38:20.116Z,18.59
2023-10-02T18:40:48.220Z,18.54
2023-10-02T18:43:21.428Z,18.50
2023-10-02T18:45:49.464Z,18.36
2023-10-02T18:48:17.233Z,18.36
2023-10-02T18:50:45.137Z,18.38
2023-10-02T18:53:15.942Z,18.31
2023-10-02T18:55:43.277Z,18.32
2023-10-02T18:58:13.194Z,18.24
2023-10-02T19:00:42.528Z,18.19
2023-10-02T19:03:09.972Z,18.30
2023-10-02T19:05:43.990Z,18.33
2023-10-02T19:08:12.984Z,18.20
2023-10-02T19:10:40.303Z,18.24
2023-10-02T19:13:09.249Z,18.14
2023-10-02T19:15:36.817Z,18.04
2023-10-02T19:18:04.988Z,18.06
2023-10-02T19:20:34.943Z,18.00
2023-10-02T19:23:02.787Z,18.14
2023-10-02T19:25:29.813Z,18.07
2023-10-02T19:27:56.876Z,18.15
2023-10-02T19:30:24.448Z,18.21
2023-10-02T19:32:52.327Z,18.24
2023-10-02T19:35:19.422Z,18.23
2023-10-02T19:37:47.262Z,18.16
2023-10-02T19:40:16.875Z,18.11
2023-10-02T19:42:45.244Z,18.12
2023-10-02T19:45:12.996Z,17.99
2023-10-02T19:47:40.115Z,17.88
2023-10-02T19:50:07.541Z,17.78
2023-10-02T19:52:34.899Z,17.77
2023-10-02T19:55:02.440Z,17.70
2023-10-02T19:57:29.774Z,17.55
2023-10-02T19:59:57.119Z,17.66
2023-10-02T20:02:24.169Z,17.56
2023-10-02T20:04:53.458Z,17.50
2023-10-02T20:07:20.545Z,17.56
2023-10-02T20:09:47.597Z,17.41
2023-10-02T20:12:15.316Z,17.38
2023-10-02T20:14:42.448Z,17.28
2023-10-02T20:17:10.230Z,17.25
2023-10-02T20:19:38.346Z,17.17
2023-10-02T20:22:09.486Z,17.17
2023-10-02T20:24:39.826Z,17.14
2023-10-02T20:27:09.100Z,17.05
2023-10-02T20:29:36.797Z,16.99
2023-10-02T20:32:04.562Z,17.02
2023-10-02T20:34:37.732Z,17.06
2023-10-02T20:37:09.541Z,17.19
2023-10-02T20:39:37.053Z,17.23
2023-10-02T20:42:04.671Z,17.09
2023-10-02T20:44:31.794Z,17.05
2023-10-02T20:47:14.052Z,16.99
2023-10-02T20:49:43.173Z,16.95
2023-10-02T20:52:11.342Z,16.89
2023-10-02T20:54:39.336Z,16.82
2023-10-02T20:57:07.460Z,16.85
2023-10-02T20:59:35.370Z,16.76
2023-10-02T21:02:03.052Z,16.52
2023-10-02T21:04:30.181Z,16.44
2023-10-02T21:06:58.987Z,16.43
2023-10-02T21:09:26.754Z,16.39
2023-10-02T21:11:54.127Z,16.37
2023-10-02T21:14:24.778Z,16.26
2023-10-02T21:16:52.031Z,16.21
2023-10-02T21:19:19.603Z,16.31
2023-10-02T21:21:52.810Z,16.35
2023-10-02T21:24:22.592Z,16.30
2023-10-02T21:26:50.783Z,16.45
2023-10-02T21:29:19.212Z,16.48
2023-10-02T21:31:46.848Z,16.30
2023-10-02T21:34:14.478Z,16.28
2023-10-02T21:36:42.839Z,16.25
2023-10-02T21:39:12.996Z,16.50
2023-10-02T21:41:40.422Z,16.29
2023-10-02T21:44:08.217Z,16.31
2023-10-02T21:46:36.423Z,16.47
2023-10-02T21:49:04.942Z,16.57
2023-10-02T21:51:32.498Z,16.46
2023-10-02T21:54:00.091Z,16.45
2023-10-02T21:56:31.141Z,16.55
2023-10-02T21:58:58.495Z,16.61
2023-10-02T22:04:55.809Z,16.37
2023-10-02T22:07:23.680Z,16.41
2023-10-02T22:09:51.255Z,16.37
2023-10-02T22:12:18.809Z,16.28
2023-10-02T22:14:49.150Z,16.49
2023-10-02T22:17:16.858Z,16.53
2023-10-02T22:19:44.466Z,16.38
2023-10-02T22:22:13.474Z,16.29
2023-10-02T22:24:43.890Z,16.29
2023-10-02T22:27:15.151Z,16.26
2023-10-02T22:29:42.720Z,16.25
2023-10-02T22:32:10.278Z,16.13
2023-10-02T22:34:42.096Z,16.17
2023-10-02T22:37:15.008Z,16.25
2023-10-02T22:39:43.194Z,16.21
2023-10-02T22:42:12.815Z,16.33
2023-10-02T22:44:41.834Z,16.11
2023-10-02T22:47:09.870Z,16.33
2023-10-02T22:49:37.479Z,16.16
2023-10-02T22:52:05.066Z,16.17
2023-10-02T22:54:32.921Z,16.07
2023-10-02T22:57:00.762Z,16.14
2023-10-02T22:59:28.440Z,16.07
2023-10-02T23:02:00.576Z,15.82
2023-10-02T23:04:28.776Z,15.96
2023-10-02T23:06:56.797Z,15.95
2023-10-02T23:09:25.738Z,15.77
2023-10-02T23:11:53.505Z,15.65
2023-10-02T23:14:24.001Z,15.59
2023-10-02T23:16:53.960Z,15.87
2023-10-02T23:19:25.609Z,15.87
2023-10-02T23:21:53.216Z,15.95
2023-10-02T23:24:20.992Z,15.76
2023-10-02T23:26:48.851Z,15.73
2023-10-02T23:29:16.489Z,15.75
2023-10-02T23:31:44.224Z,15.66
2023-10-02T23:34:13.069Z,15.77
2023-10-02T23:36:40.856Z,15.66
2023-10-02T23:39:10.366Z,15.70
2023-10-02T23:41:38.947Z,15.78
2023-10-02T23:44:06.808Z,15.82
2023-10-02T23:46:35.264Z,15.79
2023-10-02T23:49:03.556Z,15.82
2023-10-02T23:51:32.801Z,15.84
2023-10-02T23:54:00.561Z,15.89
2023-10-02T23:56:28.635Z,15.98
2023-10-02T23:58:57.409Z,16.06
